Terminal Aerodrome Forecast
Issued by NWS

Home | Current Version | Previous Version | Text Only | Print | Product List | Glossary On
Versions: 1 2 3 4 5 6 7 8 9 10 11 12
000
FTUS46 KHNX 180500
TAFFAT
TAF
KFAT 180523Z 1806/1906 31008KT P6SM SCT150 OVC200
     FM181000 VRB03KT P6SM BKN150
     FM181700 31007KT P6SM FEW100 BKN150
     FM182300 31012KT P6SM BKN080=

USA.gov is the U.S. government's official web portal to all federal, state and local government web resources and services.